Wakefield, VA

5:58 AM EDT on August 30, 2016 (GMT -0400)
Wakefield Municipal | | Change Station

Elev 112 ft 36.98 °N, 77.01 °W | Updated 4 minutes ago

Clear
Clear
67 °F
Feels Like 67 °F
N
0
Wind Variable Wind from North

Today
High -- | Low -- °F
--% Chance of Precip.
Yesterday
High -- | Low -- °F
Precip. -- in
Pressure 30.07 in
Visibility 8.0 miles
Clouds Clear
Dew Point 64 °F
Humidity 90%
Rainfall 0.00 in
Snow Depth Not available.
6:37 AM 7:38 PM
Waning Crescent, 4% visible
METAR KAKQ 300954Z AUTO 00000KT 8SM CLR 19/18 A3008 RMK AO2 SLP183 T01940178 TSNO
Pressure 30.07 in
Visibility 8.0 miles
Clouds Clear
Dew Point 64 °F
Humidity 90%
Rainfall 0.00 in
Snow Depth Not available.
6:37 AM 7:38 PM
Waning Crescent, 4% visible
METAR KAKQ 300954Z AUTO 00000KT 8SM CLR 19/18 A3008 RMK AO2 SLP183 T01940178 TSNO

10-Day Weather Forecast

Almanac

Astronomy

Aug. 30, 2016 Rise Set
Actual Time
Civil Twilight
Nautical Twilight
Astronomical Twilight
Moon
Length of Visible Light
Length of Day
Tomorrow will be .
, % of the Moon is Illuminated

Today's Extremes

State Highs State Lows

Community

WunderPhotos

Upload Photos

1,935,795 photos uploaded!

WunderBlog® & News

Nearby

Air Quality

  Air Quality AQ Index Pollutant
Not available.

Snow Depth

Station Depth Elevation

Earthquake Activity

City Distance Mag. Time & Date
Minimum magnitude displayed is 2.5.

Coastal Water Temperatures

Place Temperature

Stations

Nearby Weather Stations

Station Location Temp. Windchill Dew Point Humidity Wind Precip. Elev Updated Type
                   

Watches & Warnings

There are currently no watches in effect.